createdAt,value
2017-11-18T00:00:05.057Z,36.2
2017-11-18T00:02:05.783Z,36.2
2017-11-18T00:04:08.047Z,36.4
2017-11-18T00:06:13.338Z,36.2
2017-11-18T00:08:10.121Z,36.2
2017-11-18T00:10:13.444Z,36.2
2017-11-18T00:12:05.205Z,36.2
2017-11-18T00:14:11.220Z,36.1
2017-11-18T00:16:06.078Z,36.1
2017-11-18T00:18:06.040Z,36.2
2017-11-18T00:20:05.310Z,36.1
2017-11-18T00:22:11.100Z,36.1
2017-11-18T00:24:05.854Z,36.1
2017-11-18T00:26:08.162Z,36.1
2017-11-18T00:28:08.467Z,36.2
2017-11-18T00:30:05.187Z,36.1
2017-11-18T00:32:06.011Z,36.1
2017-11-18T00:34:05.795Z,35.9
2017-11-18T00:36:05.539Z,36.1
2017-11-18T00:38:10.317Z,36.1
2017-11-18T00:40:12.770Z,36
2017-11-18T00:42:05.476Z,36
2017-11-18T00:44:07.701Z,36
2017-11-18T00:46:05.948Z,36
2017-11-18T00:48:05.721Z,36.1
2017-11-18T00:50:05.495Z,36.1
2017-11-18T00:52:10.310Z,36.1
2017-11-18T00:54:06.044Z,36.1
2017-11-18T00:56:07.829Z,36.1
2017-11-18T00:58:05.627Z,36.1
2017-11-18T01:00:05.385Z,36
2017-11-18T01:02:05.649Z,36.1
2017-11-18T01:04:05.442Z,36.1
2017-11-18T01:06:05.244Z,36
2017-11-18T01:08:05.501Z,36
2017-11-18T01:10:05.333Z,36
2017-11-18T01:12:10.643Z,36.1
2017-11-18T01:14:05.864Z,36.1
2017-11-18T01:16:05.632Z,36
2017-11-18T01:18:05.090Z,36.1
2017-11-18T01:20:10.922Z,36
2017-11-18T01:22:05.676Z,36
2017-11-18T01:24:05.414Z,36
2017-11-18T01:26:05.220Z,36.1
2017-11-18T01:28:06.045Z,36
2017-11-18T01:30:10.496Z,36.1
2017-11-18T01:32:07.806Z,36.1
2017-11-18T01:34:05.606Z,35.9
2017-11-18T01:36:05.937Z,35.9
2017-11-18T01:38:05.242Z,36
2017-11-18T01:40:05.987Z,36
2017-11-18T01:42:05.698Z,35.8
2017-11-18T01:44:05.449Z,36
2017-11-18T01:46:12.782Z,36
2017-11-18T01:48:05.565Z,35.8
2017-11-18T01:50:05.279Z,36
2017-11-18T01:52:06.077Z,36
2017-11-18T01:54:05.791Z,35.8
2017-11-18T01:56:05.689Z,36
2017-11-18T01:58:05.471Z,35.7
2017-11-18T02:00:05.211Z,36
2017-11-18T02:02:05.550Z,35.7
2017-11-18T02:04:05.338Z,35.7
2017-11-18T02:06:05.277Z,35.6
2017-11-18T02:08:05.581Z,35.7
2017-11-18T02:10:05.928Z,35.7
2017-11-18T02:12:05.651Z,35.8
2017-11-18T02:14:05.401Z,35.8
2017-11-18T02:16:05.130Z,35.7
2017-11-18T02:18:10.152Z,35.6
2017-11-18T02:20:10.941Z,35.7
2017-11-18T02:22:08.232Z,35.7
2017-11-18T02:24:05.978Z,35.7
2017-11-18T02:26:05.221Z,35.7
2017-11-18T02:28:05.579Z,35.7
2017-11-18T02:30:05.316Z,35.7
2017-11-18T02:32:07.601Z,35.7
2017-11-18T02:34:05.345Z,35.7
2017-11-18T02:36:10.153Z,35.7
2017-11-18T02:38:08.429Z,35.7
2017-11-18T02:40:05.201Z,35.7
2017-11-18T02:42:05.446Z,35.6
2017-11-18T02:44:07.816Z,35.6
2017-11-18T02:46:05.119Z,35.6
2017-11-18T02:48:05.923Z,35.7
2017-11-18T02:50:05.723Z,35.7
2017-11-18T02:52:07.614Z,35.6
2017-11-18T02:54:06.008Z,35.6
2017-11-18T02:56:05.263Z,35.7
2017-11-18T02:58:06.115Z,35.7
2017-11-18T03:00:07.977Z,35.7
2017-11-18T03:02:05.860Z,35.7
2017-11-18T03:04:05.710Z,35.7
2017-11-18T03:06:10.579Z,35.7
2017-11-18T03:08:10.369Z,35.6
2017-11-18T03:10:13.301Z,35.6
2017-11-18T03:12:05.620Z,35.6
2017-11-18T03:14:05.878Z,35.6
2017-11-18T03:16:05.637Z,35.6
2017-11-18T03:18:05.565Z,35.6
2017-11-18T03:20:05.287Z,35.6
2017-11-18T03:22:06.047Z,35.6
2017-11-18T03:24:08.403Z,35.6
2017-11-18T03:26:07.648Z,35.6
2017-11-18T03:28:05.354Z,35.6
2017-11-18T03:30:05.117Z,35.6
2017-11-18T03:32:15.989Z,35.6
2017-11-18T03:34:05.857Z,35.6
2017-11-18T03:36:05.590Z,35.6
2017-11-18T03:38:05.366Z,35.5
2017-11-18T03:40:05.654Z,35.6
2017-11-18T03:42:05.413Z,35.6
2017-11-18T03:44:17.813Z,35.6
2017-11-18T03:46:05.579Z,35.6
2017-11-18T03:48:05.288Z,35.6
2017-11-18T03:50:05.560Z,35.5
2017-11-18T03:52:07.832Z,35.3
2017-11-18T03:54:05.674Z,35.5
2017-11-18T03:56:05.420Z,35.5
2017-11-18T03:58:05.156Z,35.6
2017-11-18T04:00:05.860Z,35.6
2017-11-18T04:02:05.663Z,35.6
2017-11-18T04:04:07.976Z,35.6
2017-11-18T04:06:05.680Z,35.6
2017-11-18T04:08:05.425Z,35.5
2017-11-18T04:10:05.196Z,35.3
2017-11-18T04:12:05.899Z,35.3
2017-11-18T04:14:05.649Z,35.6
2017-11-18T04:16:05.464Z,35.6
2017-11-18T04:18:05.380Z,35.5
2017-11-18T04:20:10.175Z,35.3
2017-11-18T04:22:05.920Z,35.3
2017-11-18T04:24:05.616Z,35.3
2017-11-18T04:26:05.520Z,35.2
2017-11-18T04:28:05.413Z,35.3
2017-11-18T04:30:05.695Z,35.3
2017-11-18T04:32:05.417Z,35.2
2017-11-18T04:34:05.163Z,35.3
2017-11-18T04:36:05.418Z,35.2
2017-11-18T04:38:07.768Z,35.3
2017-11-18T04:40:05.561Z,35.3
2017-11-18T04:42:05.316Z,35.2
2017-11-18T04:44:07.581Z,35.2
2017-11-18T04:46:07.852Z,35.2
2017-11-18T04:48:05.580Z,35.2
2017-11-18T04:50:10.921Z,35.2
2017-11-18T04:52:05.673Z,35.2
2017-11-18T04:54:05.427Z,35.2
2017-11-18T04:56:05.148Z,35.2
2017-11-18T04:58:05.904Z,35.2
2017-11-18T05:00:11.737Z,35.2
2017-11-18T05:02:05.999Z,35.2
2017-11-18T05:04:08.250Z,35.1
2017-11-18T05:06:08.579Z,35.1
2017-11-18T05:08:07.874Z,35.1
2017-11-18T05:10:05.636Z,35.1
2017-11-18T05:12:08.980Z,35.2
2017-11-18T05:14:05.150Z,35.2
2017-11-18T05:16:05.935Z,35.1
2017-11-18T05:18:05.884Z,35.2
2017-11-18T05:20:05.590Z,35.2
2017-11-18T05:22:07.909Z,35.2
2017-11-18T05:24:05.649Z,35.2
2017-11-18T05:26:10.428Z,35.1
2017-11-18T05:28:07.680Z,35.1
2017-11-18T05:30:10.514Z,35.1
2017-11-18T05:32:10.313Z,35.1
2017-11-18T05:34:05.103Z,35.1
2017-11-18T05:36:08.372Z,35.2
2017-11-18T05:38:10.728Z,35.1
2017-11-18T05:40:08.059Z,35.1
2017-11-18T05:42:05.576Z,35.1
2017-11-18T05:44:07.952Z,35.1
2017-11-18T05:46:05.726Z,35.1
2017-11-18T05:48:14.212Z,35.1
2017-11-18T05:50:05.729Z,35.1
2017-11-18T05:52:05.477Z,35.1
2017-11-18T05:54:05.231Z,35.1
2017-11-18T05:56:05.942Z,35.1
2017-11-18T05:58:05.722Z,35.1
2017-11-18T06:00:13.024Z,35.1
2017-11-18T06:02:05.297Z,35.1
2017-11-18T06:04:06.154Z,35.1
2017-11-18T06:06:11.023Z,35
2017-11-18T06:08:08.278Z,35
2017-11-18T06:10:06.107Z,34.8
2017-11-18T06:12:05.896Z,35
2017-11-18T06:14:05.306Z,34.8
2017-11-18T06:16:05.053Z,35
2017-11-18T06:18:11.067Z,34.8
2017-11-18T06:20:08.349Z,34.8
2017-11-18T06:22:10.144Z,34.8
2017-11-18T06:24:05.882Z,34.8
2017-11-18T06:26:10.779Z,34.8
2017-11-18T06:28:05.531Z,35
2017-11-18T06:30:05.240Z,35
2017-11-18T06:32:08.468Z,34.8
2017-11-18T06:34:05.712Z,35
2017-11-18T06:36:08.027Z,34.8
2017-11-18T06:38:08.275Z,34.7
2017-11-18T06:40:05.560Z,34.8
2017-11-18T06:42:05.759Z,34.8
2017-11-18T06:44:05.501Z,34.8
2017-11-18T06:46:05.298Z,34.8
2017-11-18T06:48:05.639Z,34.8
2017-11-18T06:50:05.465Z,34.8
2017-11-18T06:52:07.768Z,34.7
2017-11-18T06:54:10.593Z,34.7
2017-11-18T06:56:05.426Z,34.7
2017-11-18T06:58:10.796Z,34.8
2017-11-18T07:00:05.567Z,34.8
2017-11-18T07:02:05.318Z,34.8
2017-11-18T07:04:05.161Z,34.7
2017-11-18T07:06:16.049Z,34.8
2017-11-18T07:08:05.363Z,34.8
2017-11-18T07:10:05.100Z,34.6
2017-11-18T07:12:10.440Z,34.8
2017-11-18T07:14:05.161Z,34.7
2017-11-18T07:16:05.901Z,34.8
2017-11-18T07:18:10.967Z,34.7
2017-11-18T07:20:05.750Z,34.7
2017-11-18T07:22:13.071Z,34.7
2017-11-18T07:24:05.844Z,34.6
2017-11-18T07:26:08.100Z,34.6
2017-11-18T07:28:05.912Z,34.6
2017-11-18T07:30:08.282Z,34.6
2017-11-18T07:32:06.009Z,34.6
2017-11-18T07:34:05.714Z,34.7
2017-11-18T07:36:05.416Z,34.7
2017-11-18T07:38:05.201Z,34.7
2017-11-18T07:40:06.120Z,34.7
2017-11-18T07:42:06.338Z,34.8
2017-11-18T07:44:05.593Z,34.6
2017-11-18T07:46:12.925Z,34.6
2017-11-18T07:48:05.638Z,34.6
2017-11-18T07:50:05.904Z,34.6
2017-11-18T07:52:05.652Z,34.6
2017-11-18T07:54:10.474Z,34.6
2017-11-18T07:56:07.726Z,34.7
2017-11-18T07:58:13.068Z,34.6
2017-11-18T08:00:05.903Z,34.6
2017-11-18T08:02:05.652Z,34.6
2017-11-18T08:04:05.389Z,34.6
2017-11-18T08:06:05.115Z,34.5
2017-11-18T08:08:05.855Z,34.6
2017-11-18T08:10:05.644Z,34.6
2017-11-18T08:12:08.019Z,34.6
2017-11-18T08:14:05.271Z,34.6
2017-11-18T08:16:06.022Z,34.6
2017-11-18T08:18:06.073Z,34.6
2017-11-18T08:20:05.827Z,34.6
2017-11-18T08:22:08.085Z,34.6
2017-11-18T08:24:05.824Z,34.6
2017-11-18T08:26:05.443Z,34.6
2017-11-18T08:28:05.196Z,34.5
2017-11-18T08:30:11.003Z,34.6
2017-11-18T08:32:08.275Z,34.5
2017-11-18T08:34:05.714Z,34.5
2017-11-18T08:36:06.039Z,34.6
2017-11-18T08:38:05.899Z,34.6
2017-11-18T08:40:05.673Z,34.6
2017-11-18T08:42:05.967Z,34.6
2017-11-18T08:44:05.742Z,34.5
2017-11-18T08:46:05.518Z,34.6
2017-11-18T08:48:05.264Z,34.6
2017-11-18T08:50:05.966Z,34.6
2017-11-18T08:52:08.250Z,34.5
2017-11-18T08:54:08.515Z,34.3
2017-11-18T08:56:07.797Z,34.6
2017-11-18T08:58:05.537Z,34.6
2017-11-18T09:00:05.277Z,34.5
2017-11-18T09:02:08.522Z,34.6
2017-11-18T09:04:05.239Z,34.5
2017-11-18T09:06:06.004Z,34.3
2017-11-18T09:08:08.022Z,34.3
2017-11-18T09:10:05.740Z,34.5
2017-11-18T09:12:05.968Z,34.5
2017-11-18T09:14:08.231Z,34.3
2017-11-18T09:16:05.986Z,34.5
2017-11-18T09:18:05.453Z,34.5
2017-11-18T09:20:07.754Z,34.2
2017-11-18T09:22:05.503Z,34.2
2017-11-18T09:24:07.789Z,34.2
2017-11-18T09:26:05.539Z,34.4
2017-11-18T09:28:05.352Z,34.2
2017-11-18T09:30:05.074Z,34.2
2017-11-18T09:32:05.315Z,34.2
2017-11-18T09:34:05.595Z,34.5
2017-11-18T09:36:10.629Z,34.3
2017-11-18T09:38:05.904Z,34.3
2017-11-18T09:40:05.686Z,34.3
2017-11-18T09:42:05.989Z,34.4
2017-11-18T09:44:09.671Z,34.1
2017-11-18T09:46:05.469Z,34.1
2017-11-18T09:48:07.773Z,34.2
2017-11-18T09:50:08.061Z,34.2
2017-11-18T09:52:06.683Z,34.2
2017-11-18T09:54:05.905Z,34.2
2017-11-18T09:56:08.244Z,34
2017-11-18T09:58:05.510Z,34
2017-11-18T10:00:08.503Z,34
2017-11-18T10:02:05.907Z,34
2017-11-18T10:04:05.352Z,34
2017-11-18T10:06:17.990Z,34
2017-11-18T10:08:05.913Z,34
2017-11-18T10:10:06.083Z,34.1
2017-11-18T10:12:05.501Z,33.9
2017-11-18T10:14:05.269Z,33.9
2017-11-18T10:16:06.177Z,33.9
2017-11-18T10:18:05.813Z,34
2017-11-18T10:20:05.518Z,34.1
2017-11-18T10:22:05.257Z,34.3
2017-11-18T10:24:10.157Z,34.5
2017-11-18T10:26:09.505Z,34.5
2017-11-18T10:28:07.827Z,34.6
2017-11-18T10:30:05.573Z,34.6
2017-11-18T10:32:05.304Z,34.6
2017-11-18T10:34:08.115Z,34.7
2017-11-18T10:36:09.063Z,34.7
2017-11-18T10:38:05.419Z,34.7
2017-11-18T10:40:05.677Z,34.7
2017-11-18T10:42:15.990Z,34.8
2017-11-18T10:44:08.458Z,34.8
2017-11-18T10:46:05.436Z,34.8
2017-11-18T10:48:05.146Z,34.7
2017-11-18T10:50:06.379Z,34.8
2017-11-18T10:52:11.074Z,34.9
2017-11-18T10:54:16.115Z,34.9
2017-11-18T10:56:06.898Z,34.9
2017-11-18T10:58:10.665Z,35
2017-11-18T11:00:06.601Z,35
2017-11-18T11:02:06.330Z,35
2017-11-18T11:04:05.314Z,35.1
2017-11-18T11:06:05.030Z,35.1
2017-11-18T11:08:06.156Z,35.1
2017-11-18T11:10:05.578Z,35.1
2017-11-18T11:12:06.489Z,35
2017-11-18T11:14:05.369Z,35.1
2017-11-18T11:16:05.356Z,35.1
2017-11-18T11:18:05.100Z,35.2
2017-11-18T11:20:06.067Z,35.2
2017-11-18T11:22:06.846Z,34.9
2017-11-18T11:24:05.842Z,34.8
2017-11-18T11:26:05.761Z,34.3
2017-11-18T11:28:11.402Z,34
2017-11-18T11:30:05.483Z,34
2017-11-18T11:32:16.722Z,34.3
2017-11-18T11:34:10.657Z,34.3
2017-11-18T11:36:08.346Z,34.7
2017-11-18T11:38:05.681Z,34.7
2017-11-18T11:40:05.417Z,34.7
2017-11-18T11:42:05.478Z,34.7
2017-11-18T11:44:05.407Z,34.3
2017-11-18T11:46:12.384Z,34.7
2017-11-18T11:48:05.332Z,34.5
2017-11-18T11:50:06.352Z,34.5
2017-11-18T11:52:05.571Z,34.5
2017-11-18T11:54:05.883Z,34.5
2017-11-18T11:56:08.158Z,34.4
2017-11-18T11:58:13.495Z,34.4
2017-11-18T12:00:05.354Z,34.4
2017-11-18T12:02:05.094Z,34.3
2017-11-18T12:04:05.839Z,34.5
2017-11-18T12:06:06.050Z,34.5
2017-11-18T12:08:05.967Z,34.5
2017-11-18T12:10:05.689Z,34.5
2017-11-18T12:12:05.411Z,34.4
2017-11-18T12:14:07.687Z,34.3
2017-11-18T12:16:08.741Z,34.4
2017-11-18T12:18:05.789Z,34.5
2017-11-18T12:20:05.558Z,34.3
2017-11-18T12:22:07.835Z,34.5
2017-11-18T12:24:08.324Z,34
2017-11-18T12:26:05.116Z,33.9
2017-11-18T12:28:10.873Z,31.7
2017-11-18T12:30:05.613Z,31.7
2017-11-18T12:32:05.324Z,31.5
2017-11-18T12:34:05.124Z,31.4
2017-11-18T12:36:05.853Z,30.6
2017-11-18T12:38:05.081Z,30
2017-11-18T12:40:05.785Z,30
2017-11-18T12:42:05.142Z,29.9
2017-11-18T12:44:05.861Z,29.7
2017-11-18T12:46:06.227Z,29.3
2017-11-18T12:48:08.134Z,29.1
2017-11-18T12:50:05.837Z,29.1
2017-11-18T12:52:05.529Z,28.9
2017-11-18T12:54:05.226Z,28.6
2017-11-18T12:56:08.089Z,28.5
2017-11-18T12:58:05.829Z,28.3
2017-11-18T13:00:05.554Z,28.2
2017-11-18T13:02:05.272Z,28.6
2017-11-18T13:04:06.178Z,29
2017-11-18T13:06:06.086Z,29.1
2017-11-18T13:08:05.352Z,29.5
2017-11-18T13:10:05.182Z,29.4
2017-11-18T13:12:06.880Z,29.7
2017-11-18T13:14:05.629Z,29.8
2017-11-18T13:16:13.493Z,29.9
2017-11-18T13:18:05.450Z,29.9
2017-11-18T13:20:05.200Z,30
2017-11-18T13:22:08.534Z,30
2017-11-18T13:24:13.386Z,30.1
2017-11-18T13:26:05.098Z,30.1
2017-11-18T13:28:05.819Z,30.1
2017-11-18T13:30:05.651Z,30.4
2017-11-18T13:32:05.371Z,30.4
2017-11-18T13:34:05.286Z,30.4
2017-11-18T13:36:05.236Z,30.5
2017-11-18T13:38:05.856Z,30.6
2017-11-18T13:40:07.716Z,30.7
2017-11-18T13:42:05.054Z,30.6
2017-11-18T13:44:10.393Z,30.8
2017-11-18T13:46:21.145Z,30.8
2017-11-18T13:48:06.040Z,31
2017-11-18T13:50:05.240Z,31
2017-11-18T13:52:08.029Z,31.2
2017-11-18T13:54:08.291Z,31.5
2017-11-18T13:56:06.190Z,31.3
2017-11-18T13:58:05.500Z,31.4
2017-11-18T14:00:05.212Z,31.4
2017-11-18T14:02:05.971Z,31.6
2017-11-18T14:04:05.734Z,31.8
2017-11-18T14:06:05.535Z,31.7
2017-11-18T14:08:08.333Z,32
2017-11-18T14:10:07.632Z,31.9
2017-11-18T14:12:07.903Z,32
2017-11-18T14:14:05.637Z,32
2017-11-18T14:16:15.477Z,32.1
2017-11-18T14:18:08.003Z,32.4
2017-11-18T14:20:05.743Z,32.3
2017-11-18T14:22:05.997Z,32.4
2017-11-18T14:24:05.358Z,32.5
2017-11-18T14:26:07.588Z,32.6
2017-11-18T14:28:05.293Z,32.6
2017-11-18T14:30:05.983Z,32.7
2017-11-18T14:32:05.656Z,32.7
2017-11-18T14:34:05.922Z,32.6
2017-11-18T14:36:05.634Z,32.8
2017-11-18T14:38:05.421Z,32.7
2017-11-18T14:40:05.264Z,32.9
2017-11-18T14:42:06.001Z,33.1
2017-11-18T14:44:05.669Z,32.9
2017-11-18T14:46:07.962Z,33.2
2017-11-18T14:48:05.665Z,33
2017-11-18T14:50:10.958Z,33.3
2017-11-18T14:52:08.245Z,33.1
2017-11-18T14:54:05.085Z,33.1
2017-11-18T14:56:06.033Z,33.2
2017-11-18T14:58:05.875Z,33.2
2017-11-18T15:00:05.633Z,33.2
2017-11-18T15:02:07.882Z,33.4
2017-11-18T15:04:05.657Z,33.4
2017-11-18T15:06:05.443Z,33.4
2017-11-18T15:08:05.181Z,33.6
2017-11-18T15:10:05.961Z,33.7
2017-11-18T15:12:10.784Z,33.6
2017-11-18T15:14:05.000Z,33.6
2017-11-18T15:16:05.745Z,33.6
2017-11-18T15:18:05.696Z,33.9
2017-11-18T15:20:05.477Z,33.8
2017-11-18T15:22:12.906Z,33.9
2017-11-18T15:24:05.179Z,33.9
2017-11-18T15:26:05.907Z,33.5
2017-11-18T15:28:05.767Z,33
2017-11-18T15:30:05.548Z,33.5
2017-11-18T15:32:05.270Z,33.2
2017-11-18T15:34:08.504Z,32.9
2017-11-18T15:36:10.811Z,33
2017-11-18T15:38:05.247Z,33
2017-11-18T15:40:05.947Z,32.8
2017-11-18T15:42:05.652Z,32.9
2017-11-18T15:44:05.401Z,32.8
2017-11-18T15:46:05.226Z,33
2017-11-18T15:48:06.123Z,33
2017-11-18T15:50:05.851Z,33.2
2017-11-18T15:52:08.160Z,33.9
2017-11-18T15:54:06.008Z,33.7
2017-11-18T15:56:08.475Z,34
2017-11-18T15:58:07.676Z,34.2
2017-11-18T16:00:08.158Z,34
2017-11-18T16:02:08.437Z,34.3
2017-11-18T16:04:05.222Z,34.1
2017-11-18T16:06:05.991Z,34.1
2017-11-18T16:08:05.674Z,34.4
2017-11-18T16:10:05.908Z,34.3
2017-11-18T16:12:05.707Z,34.3
2017-11-18T16:14:05.418Z,34.3
2017-11-18T16:16:05.238Z,34.4
2017-11-18T16:18:07.670Z,34.3
2017-11-18T16:20:05.376Z,34.5
2017-11-18T16:22:05.114Z,34.4
2017-11-18T16:24:05.868Z,34.5
2017-11-18T16:26:05.662Z,34.3
2017-11-18T16:28:10.420Z,34.4
2017-11-18T16:30:05.144Z,34.5
2017-11-18T16:32:05.851Z,34.6
2017-11-18T16:34:05.185Z,34.6
2017-11-18T16:36:06.028Z,34.6
2017-11-18T16:38:05.336Z,34.7
2017-11-18T16:40:05.071Z,34.8
2017-11-18T16:42:05.815Z,34.5
2017-11-18T16:44:08.115Z,34.7
2017-11-18T16:46:05.887Z,34.7
2017-11-18T16:48:05.615Z,34.7
2017-11-18T16:50:10.911Z,34.5
2017-11-18T16:52:05.612Z,34.5
2017-11-18T16:54:07.863Z,34
2017-11-18T16:56:08.214Z,34.2
2017-11-18T16:58:05.975Z,34.1
2017-11-18T17:00:05.707Z,34.6
2017-11-18T17:02:07.991Z,34.1
2017-11-18T17:04:05.836Z,34.1
2017-11-18T17:06:10.668Z,34.5
2017-11-18T17:08:07.929Z,33.8
2017-11-18T17:10:05.706Z,33.8
2017-11-18T17:12:06.058Z,33.8
2017-11-18T17:14:08.394Z,33.6
2017-11-18T17:16:05.142Z,33.6
2017-11-18T17:18:05.100Z,33.6
2017-11-18T17:20:08.361Z,34
2017-11-18T17:22:06.083Z,34
2017-11-18T17:24:08.329Z,34.8
2017-11-18T17:26:05.048Z,34.8
2017-11-18T17:28:05.773Z,34.8
2017-11-18T17:30:08.062Z,34.4
2017-11-18T17:32:05.930Z,34.4
2017-11-18T17:34:05.673Z,34.5
2017-11-18T17:36:05.619Z,34.6
2017-11-18T17:38:05.442Z,34.7
2017-11-18T17:40:05.293Z,34.6
2017-11-18T17:42:05.086Z,34.7
2017-11-18T17:44:05.878Z,34.9
2017-11-18T17:46:10.964Z,35
2017-11-18T17:48:05.647Z,35
2017-11-18T17:50:07.917Z,35
2017-11-18T17:52:05.665Z,35
2017-11-18T17:54:08.416Z,34.8
2017-11-18T17:56:05.106Z,34.9
2017-11-18T17:58:05.826Z,34.8
2017-11-18T18:00:05.078Z,34.8
2017-11-18T18:02:10.367Z,34.9
2017-11-18T18:04:05.335Z,34.9
2017-11-18T18:06:05.580Z,35.1
2017-11-18T18:08:05.386Z,35
2017-11-18T18:10:05.291Z,35
2017-11-18T18:12:05.694Z,35.1
2017-11-18T18:14:08.525Z,35.1
2017-11-18T18:16:05.797Z,34.9
2017-11-18T18:18:05.802Z,34.8
2017-11-18T18:20:05.570Z,35
2017-11-18T18:22:10.375Z,35
2017-11-18T18:24:05.125Z,34.9
2017-11-18T18:26:06.010Z,35
2017-11-18T18:28:07.332Z,34.9
2017-11-18T18:30:05.592Z,35
2017-11-18T18:32:05.541Z,35.1
2017-11-18T18:34:05.658Z,35.1
2017-11-18T18:36:05.474Z,35.1
2017-11-18T18:38:10.281Z,35.2
2017-11-18T18:40:05.101Z,35
2017-11-18T18:42:05.845Z,34.9
2017-11-18T18:44:08.119Z,35.1
2017-11-18T18:46:05.949Z,34.9
2017-11-18T18:48:05.957Z,34.9
2017-11-18T18:50:08.219Z,35
2017-11-18T18:52:05.501Z,35
2017-11-18T18:54:07.801Z,34.9
2017-11-18T18:56:08.088Z,34.8
2017-11-18T18:58:05.850Z,35
2017-11-18T19:00:05.527Z,33.9
2017-11-18T19:02:05.286Z,33.7
2017-11-18T19:04:06.063Z,33.8
2017-11-18T19:06:05.809Z,33.7
2017-11-18T19:08:05.166Z,33.3
2017-11-18T19:10:06.030Z,33.5
2017-11-18T19:12:05.916Z,33.5
2017-11-18T19:14:08.184Z,33.5
2017-11-18T19:16:06.010Z,33.5
2017-11-18T19:18:16.070Z,33.4
2017-11-18T19:20:08.335Z,33.5
2017-11-18T19:22:05.267Z,33.5
2017-11-18T19:24:07.842Z,33.8
2017-11-18T19:26:08.115Z,33.8
2017-11-18T19:28:05.389Z,33.6
2017-11-18T19:30:05.140Z,33.7
2017-11-18T19:32:05.078Z,33.7
2017-11-18T19:34:05.858Z,34
2017-11-18T19:36:05.110Z,33.7
2017-11-18T19:38:05.845Z,33.7
2017-11-18T19:40:13.290Z,33.8
2017-11-18T19:42:06.158Z,33.8
2017-11-18T19:44:07.951Z,33.7
2017-11-18T19:46:05.687Z,33.8
2017-11-18T19:48:05.424Z,33.8
2017-11-18T19:50:08.238Z,33.9
2017-11-18T19:52:05.978Z,33.9
2017-11-18T19:54:05.841Z,33.9
2017-11-18T19:56:05.570Z,34
2017-11-18T19:58:07.819Z,33.7
2017-11-18T20:00:10.750Z,33.8
2017-11-18T20:02:05.491Z,33.7
2017-11-18T20:04:05.224Z,33.9
2017-11-18T20:06:08.483Z,33.8
2017-11-18T20:08:05.226Z,33.8
2017-11-18T20:10:05.977Z,33.9
2017-11-18T20:12:05.775Z,33.9
2017-11-18T20:14:12.636Z,33.9
2017-11-18T20:16:13.573Z,33.9
2017-11-18T20:18:07.754Z,34
2017-11-18T20:20:05.687Z,34
2017-11-18T20:22:05.918Z,34
2017-11-18T20:24:06.220Z,33.9
2017-11-18T20:26:10.770Z,33.9
2017-11-18T20:28:10.302Z,33.9
2017-11-18T20:30:05.685Z,33.9
2017-11-18T20:32:05.392Z,33.9
2017-11-18T20:34:05.094Z,34
2017-11-18T20:36:05.841Z,34
2017-11-18T20:38:05.610Z,33.9
2017-11-18T20:40:05.398Z,33.9
2017-11-18T20:42:05.164Z,33.9
2017-11-18T20:44:05.876Z,34
2017-11-18T20:46:05.117Z,34
2017-11-18T20:48:05.846Z,34
2017-11-18T20:50:05.535Z,34
2017-11-18T20:52:05.850Z,34
2017-11-18T20:54:05.568Z,34
2017-11-18T20:56:05.260Z,34
2017-11-18T20:58:06.005Z,33.9
2017-11-18T21:00:10.796Z,34
2017-11-18T21:02:05.497Z,34
2017-11-18T21:04:10.254Z,34
2017-11-18T21:06:05.947Z,34
2017-11-18T21:08:05.648Z,34
2017-11-18T21:10:05.897Z,34
2017-11-18T21:12:05.138Z,34.1
2017-11-18T21:14:05.861Z,34
2017-11-18T21:16:05.634Z,34.1
2017-11-18T21:18:05.162Z,34.1
2017-11-18T21:20:05.429Z,34.1
2017-11-18T21:22:05.228Z,34.2
2017-11-18T21:24:05.962Z,34.1
2017-11-18T21:26:05.714Z,34.2
2017-11-18T21:28:05.542Z,34.3
2017-11-18T21:30:05.272Z,34.3
2017-11-18T21:32:05.945Z,34.3
2017-11-18T21:34:08.185Z,34.2
2017-11-18T21:36:05.895Z,34.2
2017-11-18T21:38:05.719Z,34.3
2017-11-18T21:40:05.423Z,34.3
2017-11-18T21:42:10.177Z,34.5
2017-11-18T21:44:05.997Z,34.4
2017-11-18T21:46:10.239Z,34.4
2017-11-18T21:48:05.934Z,34.5
2017-11-18T21:50:05.670Z,34.6
2017-11-18T21:52:07.942Z,34.4
2017-11-18T21:54:05.792Z,34.4
2017-11-18T21:56:05.503Z,34.6
2017-11-18T21:58:10.528Z,34.7
2017-11-18T22:00:05.254Z,34.6
2017-11-18T22:02:05.976Z,34.7
2017-11-18T22:04:05.812Z,34.6
2017-11-18T22:06:05.602Z,34.5
2017-11-18T22:08:05.380Z,34.5
2017-11-18T22:10:07.836Z,34.6
2017-11-18T22:12:05.683Z,34.6
2017-11-18T22:14:05.990Z,34.4
2017-11-18T22:16:05.767Z,34.5
2017-11-18T22:18:05.297Z,34.7
2017-11-18T22:20:07.578Z,34.6
2017-11-18T22:22:05.331Z,34.5
2017-11-18T22:24:04.998Z,34.5
2017-11-18T22:26:05.284Z,34.4
2017-11-18T22:28:06.002Z,34.5
2017-11-18T22:30:08.279Z,34.4
2017-11-18T22:32:08.479Z,34.5
2017-11-18T22:34:07.817Z,34.5
2017-11-18T22:36:05.524Z,34.4
2017-11-18T22:38:06.221Z,34.4
2017-11-18T22:40:05.549Z,34.4
2017-11-18T22:42:10.304Z,34.4
2017-11-18T22:44:05.067Z,34.4
2017-11-18T22:46:06.059Z,34.5
2017-11-18T22:48:08.518Z,34.4
2017-11-18T22:50:05.283Z,34.4
2017-11-18T22:52:06.002Z,34.5
2017-11-18T22:54:10.836Z,34.5
2017-11-18T22:56:05.098Z,34.5
2017-11-18T22:58:05.840Z,34.5
2017-11-18T23:00:05.297Z,34.5
2017-11-18T23:02:10.114Z,34.5
2017-11-18T23:04:05.830Z,34.5
2017-11-18T23:06:05.585Z,34.4
2017-11-18T23:08:05.317Z,34.5
2017-11-18T23:10:10.090Z,34.5
2017-11-18T23:12:05.789Z,34.6
2017-11-18T23:14:05.520Z,34.5
2017-11-18T23:16:05.853Z,34.5
2017-11-18T23:18:05.745Z,34.3
2017-11-18T23:20:05.457Z,34.2
2017-11-18T23:22:05.259Z,34.2
2017-11-18T23:24:08.495Z,34.3
2017-11-18T23:26:07.843Z,34.4
2017-11-18T23:28:05.700Z,34.3
2017-11-18T23:30:05.468Z,34.5
2017-11-18T23:32:10.522Z,34.2
2017-11-18T23:34:07.820Z,34.3
2017-11-18T23:36:05.524Z,34.3
2017-11-18T23:38:05.276Z,34.4
2017-11-18T23:40:08.127Z,34.2
2017-11-18T23:42:05.808Z,34.2
2017-11-18T23:44:05.497Z,34.3
2017-11-18T23:46:05.249Z,34.5
2017-11-18T23:48:05.981Z,34.3
2017-11-18T23:50:05.739Z,34.5
2017-11-18T23:52:05.506Z,34.2
2017-11-18T23:54:05.838Z,34.3
2017-11-18T23:56:08.112Z,34.3
2017-11-18T23:58:10.954Z,34.3
